昆明 の空港の天気 - METARとTAF

昆明巫家餽国際空港 ( ZPPP / KMG ) - 中国 雲南省昆明市
飛行場実況気象(Metar)
観測時間10/23 21:00 CST (10/23 13:00 UTC)
風向・風速東北東 2m/s
視程5000m
天気現象もや
少しの雲 雲底高度 180m
全天の4割程度の雲 雲底高度 610m
全天を覆う雲 雲底高度 1010m
気温10℃
湿度94%
気圧1025hPa
METARZPPP 231300Z 07002MPS 030V110 5000 BR FEW006 SCT020 OVC033 10/09 Q1025 NOSIG
過去の天気等 Google飛行場航空写真 Wunderground天気予報

過去48時間のMETAR

飛行場予報(TAF)
発表時間: 10/23 15:06 CST (10/23 07:06 UTC)
予報対象時間: 23日20時 CST ~ 24日20時 CST
風向・風速北東 4m/s
視程3,100m
天気現象弱いしゅう雨 もや
全天の4割程度の雲 雲底高度 90m
全天を覆う雲 雲底高度 610m
TAF ZPPP 230706Z 2312/2412 04004MPS 3100 -SHRA BR SCT003 OVC020 TX15/2408Z TN08/2323Z